createdAt,value
2019-04-03T00:00:38.654Z,93749.67
2019-04-03T00:03:07.259Z,93749.67
2019-04-03T00:05:36.157Z,93751.37
2019-04-03T00:08:06.587Z,93751.37
2019-04-03T00:10:35.952Z,93747.39
2019-04-03T00:13:06.267Z,93743.77
2019-04-03T00:15:34.942Z,93729.53
2019-04-03T00:18:03.577Z,93741.09
2019-04-03T00:20:32.531Z,93734.22
2019-04-03T00:23:01.383Z,93739.84
2019-04-03T00:25:30.020Z,93740.39
2019-04-03T00:27:58.673Z,93731.56
2019-04-03T00:30:27.375Z,93731.56
2019-04-03T00:32:55.995Z,93729.24
2019-04-03T00:35:24.839Z,93726.70
2019-04-03T00:37:53.901Z,93732.32
2019-04-03T00:40:22.712Z,93721.27
2019-04-03T00:42:54.751Z,93723.42
2019-04-03T00:45:24.490Z,93722.19
2019-04-03T00:47:55.289Z,93731.96
2019-04-03T00:50:26.913Z,93731.25
2019-04-03T00:52:57.494Z,93715.70
2019-04-03T00:55:27.084Z,93715.70
2019-04-03T00:57:56.514Z,93712.23
2019-04-03T01:00:26.451Z,93722.41
2019-04-03T01:02:58.146Z,93722.74
2019-04-03T01:05:28.189Z,93729.96
2019-04-03T01:07:59.129Z,93721.03
2019-04-03T01:10:27.859Z,93721.03
2019-04-03T01:12:57.742Z,93724.50
2019-04-03T01:15:26.353Z,93719.58
2019-04-03T01:17:54.943Z,93705.73
2019-04-03T01:20:23.894Z,93705.73
2019-04-03T01:22:52.777Z,93706.73
2019-04-03T01:25:21.573Z,93709.03
2019-04-03T01:27:50.173Z,93708.37
2019-04-03T01:30:19.218Z,93702.59
2019-04-03T01:32:48.200Z,93701.95
2019-04-03T01:35:17.361Z,93709.59
2019-04-03T01:37:49.227Z,93702.45
2019-04-03T01:40:16.818Z,93700.97
2019-04-03T01:42:45.499Z,93700.97
2019-04-03T01:45:14.111Z,93694.25
2019-04-03T01:47:42.715Z,93700.94
2019-04-03T01:50:11.547Z,93700.94
2019-04-03T01:52:40.237Z,93695.73
2019-04-03T01:55:08.908Z,93687.33
2019-04-03T01:57:37.823Z,93679.89
2019-04-03T02:00:07.685Z,93663.93
2019-04-03T02:02:38.714Z,93647.23
2019-04-03T02:05:08.477Z,93647.23
2019-04-03T02:07:37.298Z,93668.83
2019-04-03T02:10:11.757Z,93668.83
2019-04-03T02:12:40.753Z,93658.97
2019-04-03T02:15:09.661Z,93658.97
2019-04-03T02:17:38.319Z,93656.05
2019-04-03T02:20:07.013Z,93648.03
2019-04-03T02:22:35.657Z,93657.80
2019-04-03T02:25:04.512Z,93663.30
2019-04-03T02:27:33.864Z,93659.98
2019-04-03T02:30:03.044Z,93659.98
2019-04-03T02:32:31.950Z,93656.95
2019-04-03T02:35:00.569Z,93656.95
2019-04-03T02:37:29.524Z,93650.41
2019-04-03T02:40:00.396Z,93652.02
2019-04-03T02:42:29.687Z,93652.02
2019-04-03T02:44:58.729Z,93647.79
2019-04-03T02:47:27.373Z,93651.39
2019-04-03T02:49:56.795Z,93649.10
2019-04-03T02:52:26.036Z,93649.10
2019-04-03T02:54:54.817Z,93648.94
2019-04-03T02:57:23.499Z,93649.94
2019-04-03T02:59:52.340Z,93655.98
2019-04-03T03:02:21.249Z,93660.22
2019-04-03T03:04:53.740Z,93664.52
2019-04-03T03:07:20.521Z,93663.56
2019-04-03T03:09:49.640Z,93663.56
2019-04-03T03:12:19.176Z,93670.73
2019-04-03T03:14:48.212Z,93669.20
2019-04-03T03:17:21.227Z,93669.20
2019-04-03T03:19:49.090Z,93661.59
2019-04-03T03:22:18.990Z,93653.23
2019-04-03T03:24:48.015Z,93653.23
2019-04-03T03:27:16.896Z,93654.53
2019-04-03T03:29:46.094Z,93651.32
2019-04-03T03:32:21.517Z,93639.78
2019-04-03T03:34:56.004Z,93639.78
2019-04-03T03:37:16.189Z,93632.89
2019-04-03T03:39:45.216Z,93617.28
2019-04-03T03:42:15.076Z,93628.03
2019-04-03T03:44:45.742Z,93611.61
2019-04-03T03:47:14.709Z,93651.06
2019-04-03T03:49:44.657Z,93615.35
2019-04-03T03:52:14.735Z,93620.48
2019-04-03T03:54:43.928Z,93617.27
2019-04-03T03:57:12.637Z,93617.27
2019-04-03T03:59:41.836Z,93614.89
2019-04-03T04:02:10.748Z,93618.52
2019-04-03T04:04:39.794Z,93616.10
2019-04-03T04:07:08.645Z,93616.27
2019-04-03T04:09:37.969Z,93616.27
2019-04-03T04:12:07.501Z,93619.88
2019-04-03T04:14:37.466Z,93619.88
2019-04-03T04:17:09.431Z,93620.06
2019-04-03T04:19:36.951Z,93618.38
2019-04-03T04:22:06.078Z,93624.38
2019-04-03T04:24:35.157Z,93621.65
2019-04-03T04:27:04.165Z,93621.65
2019-04-03T04:29:33.220Z,93620.75
2019-04-03T04:32:02.275Z,93610.64
2019-04-03T04:34:30.896Z,93612.00
2019-04-03T04:37:02.177Z,93611.12
2019-04-03T04:39:30.127Z,93618.06
2019-04-03T04:41:58.748Z,93618.06
2019-04-03T04:44:27.613Z,93610.48
2019-04-03T04:46:56.223Z,93627.64
2019-04-03T04:49:24.949Z,93627.64
2019-04-03T04:51:56.508Z,93619.88
2019-04-03T04:54:24.193Z,93618.42
2019-04-03T04:56:53.050Z,93618.38
2019-04-03T04:59:21.724Z,93623.79
2019-04-03T05:01:50.591Z,93629.11
2019-04-03T05:04:20.255Z,93623.47
2019-04-03T05:06:48.835Z,93618.57
2019-04-03T05:09:17.893Z,93618.57
2019-04-03T05:11:47.001Z,93626.15
2019-04-03T05:14:17.670Z,93630.45
2019-04-03T05:16:46.447Z,93630.34
2019-04-03T05:19:18.934Z,93626.55
2019-04-03T05:21:46.076Z,93619.28
2019-04-03T05:24:14.747Z,93625.55
2019-04-03T05:26:43.355Z,93627.66
2019-04-03T05:29:12.106Z,93627.66
2019-04-03T05:31:40.882Z,93636.59
2019-04-03T05:34:12.402Z,93629.08
2019-04-03T05:36:40.432Z,93619.72
2019-04-03T05:39:09.407Z,93619.72
2019-04-03T05:41:38.210Z,93614.25
2019-04-03T05:44:09.327Z,93613.63
2019-04-03T05:46:50.339Z,93613.63
2019-04-03T05:49:38.166Z,93610.05
2019-04-03T05:52:07.005Z,93613.28
2019-04-03T05:54:38.611Z,93612.95
2019-04-03T05:57:06.573Z,93618.97
2019-04-03T05:59:35.623Z,93618.97
2019-04-03T06:02:14.674Z,93622.70
2019-04-03T06:04:35.139Z,93611.98
2019-04-03T06:07:03.834Z,93635.47
2019-04-03T06:09:32.550Z,93624.18
2019-04-03T06:12:01.545Z,93619.84
2019-04-03T06:14:30.603Z,93616.44
2019-04-03T06:16:59.320Z,93617.28
2019-04-03T06:19:28.278Z,93629.42
2019-04-03T06:21:56.901Z,93629.42
2019-04-03T06:24:25.916Z,93626.93
2019-04-03T06:26:54.891Z,93628.13
2019-04-03T06:29:23.833Z,93623.16
2019-04-03T06:34:19.132Z,93626.63
2019-04-03T06:36:50.174Z,93621.36
2019-04-03T06:39:22.154Z,93605.33
2019-04-03T06:41:48.894Z,93608.09
2019-04-03T06:44:17.985Z,93609.64
2019-04-03T06:46:46.825Z,93609.64
2019-04-03T06:49:15.730Z,93618.53
2019-04-03T06:51:44.754Z,93616.40
2019-04-03T06:54:13.443Z,93616.40
2019-04-03T06:56:42.152Z,93617.62
2019-04-03T06:59:10.724Z,93615.30
2019-04-03T07:01:39.716Z,93611.38
2019-04-03T07:04:09.250Z,93608.38
2019-04-03T07:06:37.934Z,93617.59
2019-04-03T07:09:07.754Z,93608.19
2019-04-03T07:11:36.360Z,93613.55
2019-04-03T07:14:05.043Z,93612.42
2019-04-03T07:16:33.676Z,93608.52
2019-04-03T07:19:02.458Z,93609.19
2019-04-03T07:21:31.077Z,93599.58
2019-04-03T07:24:00.949Z,93603.95
2019-04-03T07:26:30.156Z,93599.98
2019-04-03T07:28:58.770Z,93616.36
2019-04-03T07:31:27.625Z,93625.58
2019-04-03T07:33:58.195Z,93617.45
2019-04-03T07:36:26.773Z,93616.40
2019-04-03T07:38:57.884Z,93619.92
2019-04-03T07:41:25.704Z,93620.55
2019-04-03T07:43:54.306Z,93613.85
2019-04-03T07:46:22.921Z,93616.03
2019-04-03T07:48:51.537Z,93616.02
2019-04-03T07:51:20.413Z,93618.50
2019-04-03T07:53:51.208Z,93620.23
2019-04-03T07:56:19.332Z,93627.36
2019-04-03T07:58:48.703Z,93630.88
2019-04-03T08:01:18.776Z,93623.98
2019-04-03T08:03:50.021Z,93619.38
2019-04-03T08:06:19.033Z,93623.37
2019-04-03T08:08:50.235Z,93622.23
2019-04-03T08:11:18.450Z,93625.09
2019-04-03T08:13:47.168Z,93628.92
2019-04-03T08:16:16.687Z,93630.28
2019-04-03T08:18:45.308Z,93621.79
2019-04-03T08:21:14.226Z,93624.57
2019-04-03T08:23:42.851Z,93620.28
2019-04-03T08:26:12.217Z,93615.34
2019-04-03T08:28:41.003Z,93609.77
2019-04-03T08:31:11.561Z,93619.33
2019-04-03T08:33:40.934Z,93612.60
2019-04-03T08:36:09.595Z,93621.28
2019-04-03T08:38:38.640Z,93623.27
2019-04-03T08:41:07.511Z,93616.22
2019-04-03T08:43:36.187Z,93620.23
2019-04-03T08:46:04.999Z,93620.80
2019-04-03T08:48:33.944Z,93627.38
2019-04-03T08:51:03.802Z,93629.14
2019-04-03T08:53:32.538Z,93628.40
2019-04-03T08:56:01.476Z,93624.44
2019-04-03T08:58:30.237Z,93624.47
2019-04-03T09:00:58.858Z,93622.55
2019-04-03T09:03:27.460Z,93623.89
2019-04-03T09:05:56.419Z,93615.76
2019-04-03T09:08:26.726Z,93630.77
2019-04-03T09:10:56.105Z,93627.09
2019-04-03T09:13:24.867Z,93620.86
2019-04-03T09:15:53.705Z,93617.05
2019-04-03T09:18:22.546Z,93613.52
2019-04-03T09:20:51.329Z,93608.59
2019-04-03T09:23:20.342Z,93612.25
2019-04-03T09:25:49.361Z,93607.31
2019-04-03T09:28:18.370Z,93601.03
2019-04-03T09:30:48.297Z,93607.84
2019-04-03T09:33:17.079Z,93603.55
2019-04-03T09:35:45.957Z,93595.23
2019-04-03T09:38:14.574Z,93587.61
2019-04-03T09:40:43.656Z,93596.45
2019-04-03T09:43:12.594Z,93584.96
2019-04-03T09:45:41.403Z,93587.31
2019-04-03T09:48:12.284Z,93591.03
2019-04-03T09:50:40.443Z,93584.50
2019-04-03T09:53:09.301Z,93584.52
2019-04-03T09:55:38.718Z,93573.63
2019-04-03T09:58:07.906Z,93580.04
2019-04-03T10:00:37.077Z,93577.25
2019-04-03T10:03:06.494Z,93573.30
2019-04-03T10:05:35.169Z,93575.50
2019-04-03T10:08:07.649Z,93578.49
2019-04-03T10:10:34.987Z,93578.77
2019-04-03T10:13:03.621Z,93579.04
2019-04-03T10:15:32.466Z,93585.98
2019-04-03T10:18:01.414Z,93601.29
2019-04-03T10:20:30.021Z,93604.16
2019-04-03T10:22:58.618Z,93608.89
2019-04-03T10:25:27.227Z,93594.69
2019-04-03T10:27:56.820Z,93602.55
2019-04-03T10:30:26.143Z,93602.31
2019-04-03T10:32:54.814Z,93602.31
2019-04-03T10:35:23.467Z,93600.14
2019-04-03T10:37:52.096Z,93588.27
2019-04-03T10:40:23.535Z,93588.44
2019-04-03T10:42:51.587Z,93593.55
2019-04-03T10:45:20.437Z,93590.45
2019-04-03T10:47:49.136Z,93592.73
2019-04-03T10:50:17.907Z,93592.73
2019-04-03T10:52:48.723Z,93598.86
2019-04-03T10:55:17.215Z,93594.67
2019-04-03T10:57:46.083Z,93589.28
2019-04-03T11:00:15.525Z,93592.46
2019-04-03T11:02:44.409Z,93585.45
2019-04-03T11:05:13.989Z,93583.77
2019-04-03T11:07:42.646Z,93595.56
2019-04-03T11:10:13.492Z,93595.56
2019-04-03T11:12:42.153Z,93613.99
2019-04-03T11:15:12.630Z,93613.99
2019-04-03T11:17:41.996Z,93607.06
2019-04-03T11:20:11.221Z,93622.11
2019-04-03T11:22:42.119Z,93613.45
2019-04-03T11:25:13.889Z,93613.45
2019-04-03T11:27:44.833Z,93616.10
2019-04-03T11:30:17.005Z,93616.04
2019-04-03T11:32:45.161Z,93607.22
2019-04-03T11:35:14.450Z,93607.22
2019-04-03T11:37:43.123Z,93619.47
2019-04-03T11:40:12.790Z,93615.66
2019-04-03T11:42:41.403Z,93614.28
2019-04-03T11:45:10.715Z,93618.00
2019-04-03T11:47:39.477Z,93619.70
2019-04-03T11:50:08.896Z,93623.78
2019-04-03T11:52:37.798Z,93624.48
2019-04-03T11:55:09.981Z,93622.99
2019-04-03T11:57:36.782Z,93626.29
2019-04-03T12:00:08.758Z,93631.93
2019-04-03T12:02:40.333Z,93633.52
2019-04-03T12:05:09.865Z,93630.58
2019-04-03T12:07:38.485Z,93610.81
2019-04-03T12:10:07.260Z,93610.81
2019-04-03T12:12:36.032Z,93606.00
2019-04-03T12:15:05.450Z,93590.98
2019-04-03T12:17:34.348Z,93583.97
2019-04-03T12:20:03.202Z,93583.97
2019-04-03T12:22:32.065Z,93584.77
2019-04-03T12:25:00.873Z,93584.77
2019-04-03T12:27:29.731Z,93578.80
2019-04-03T12:29:58.606Z,93578.80
2019-04-03T12:32:37.456Z,93574.94
2019-04-03T12:34:57.802Z,93578.12
2019-04-03T12:37:26.852Z,93576.61
2019-04-03T12:39:55.538Z,93582.76
2019-04-03T12:42:24.807Z,93567.27
2019-04-03T12:44:54.410Z,93567.27
2019-04-03T12:47:23.961Z,93562.52
2019-04-03T12:49:53.985Z,93563.88
2019-04-03T12:52:23.729Z,93563.88
2019-04-03T12:54:54.135Z,93569.70
2019-04-03T12:57:23.269Z,93547.24
2019-04-03T12:59:52.182Z,93557.62
2019-04-03T13:02:21.662Z,93559.42
2019-04-03T13:04:50.510Z,93548.93
2019-04-03T13:07:19.446Z,93539.98
2019-04-03T13:09:48.169Z,93529.89
2019-04-03T13:12:16.783Z,93538.17
2019-04-03T13:14:45.870Z,93545.30
2019-04-03T13:17:15.417Z,93537.84
2019-04-03T13:19:44.083Z,93505.20
2019-04-03T13:22:12.777Z,93512.57
2019-04-03T13:24:41.517Z,93507.37
2019-04-03T13:27:10.442Z,93518.67
2019-04-03T13:29:40.359Z,93532.95
2019-04-03T13:32:09.927Z,93519.89
2019-04-03T13:34:41.497Z,93507.63
2019-04-03T13:37:09.622Z,93517.98
2019-04-03T13:39:38.357Z,93511.08
2019-04-03T13:42:07.291Z,93504.95
2019-04-03T13:44:36.248Z,93502.41
2019-04-03T13:47:06.120Z,93498.81
2019-04-03T13:49:35.446Z,93484.80
2019-04-03T13:52:08.304Z,93490.14
2019-04-03T13:54:34.649Z,93486.28
2019-04-03T13:57:03.489Z,93487.20
2019-04-03T13:59:32.693Z,93489.18
2019-04-03T14:02:02.054Z,93494.41
2019-04-03T14:04:31.198Z,93507.84
2019-04-03T14:07:02.796Z,93501.73
2019-04-03T14:09:30.582Z,93492.27
2019-04-03T14:12:00.904Z,93473.06
2019-04-03T14:14:29.829Z,93462.48
2019-04-03T14:16:58.691Z,93443.88
2019-04-03T14:19:27.536Z,93435.98
2019-04-03T14:21:58.795Z,93447.63
2019-04-03T14:24:39.767Z,93450.73
2019-04-03T14:26:57.897Z,93448.03
2019-04-03T14:29:29.171Z,93461.53
2019-04-03T14:31:58.132Z,93460.19
2019-04-03T14:34:29.217Z,93448.89
2019-04-03T14:36:57.353Z,93456.48
2019-04-03T14:39:26.164Z,93458.78
2019-04-03T14:41:55.518Z,93456.61
2019-04-03T14:44:24.243Z,93456.95
2019-04-03T14:46:52.933Z,93462.30
2019-04-03T14:49:21.584Z,93464.19
2019-04-03T14:51:50.666Z,93469.80
2019-04-03T14:54:19.358Z,93468.50
2019-04-03T14:56:48.304Z,93470.28
2019-04-03T14:59:17.008Z,93470.13
2019-04-03T15:01:46.409Z,93460.51
2019-04-03T15:04:15.189Z,93456.56
2019-04-03T15:06:44.189Z,93450.55
2019-04-03T15:09:14.813Z,93439.24
2019-04-03T15:11:43.675Z,93447.75
2019-04-03T15:14:12.718Z,93448.42
2019-04-03T15:16:41.811Z,93449.16
2019-04-03T15:19:13.129Z,93442.17
2019-04-03T15:21:40.979Z,93435.47
2019-04-03T15:24:11.449Z,93439.28
2019-04-03T15:26:40.411Z,93439.84
2019-04-03T15:29:09.485Z,93431.80
2019-04-03T15:31:38.476Z,93438.92
2019-04-03T15:34:07.209Z,93431.80
2019-04-03T15:36:36.700Z,93430.77
2019-04-03T15:39:11.999Z,93436.03
2019-04-03T15:41:41.443Z,93431.92
2019-04-03T15:44:10.375Z,93434.55
2019-04-03T15:46:39.438Z,93424.92
2019-04-03T15:49:08.428Z,93430.15
2019-04-03T15:51:39.294Z,93426.03
2019-04-03T15:54:08.223Z,93441.50
2019-04-03T15:56:37.152Z,93447.39
2019-04-03T15:59:06.309Z,93459.95
2019-04-03T16:01:35.145Z,93452.02
2019-04-03T16:04:04.611Z,93449.70
2019-04-03T16:06:35.911Z,93442.59
2019-04-03T16:09:05.825Z,93443.25
2019-04-03T16:11:34.783Z,93433.84
2019-04-03T16:14:03.741Z,93444.64
2019-04-03T16:16:32.749Z,93447.41
2019-04-03T16:19:01.743Z,93447.41
2019-04-03T16:21:30.883Z,93433.30
2019-04-03T16:23:59.837Z,93444.72
2019-04-03T16:26:28.800Z,93444.72
2019-04-03T16:28:57.692Z,93437.28
2019-04-03T16:31:26.343Z,93446.00
2019-04-03T16:33:55.245Z,93434.85
2019-04-03T16:36:23.936Z,93430.84
2019-04-03T16:38:52.712Z,93430.84
2019-04-03T16:41:21.414Z,93430.67
2019-04-03T16:43:50.548Z,93454.52
2019-04-03T16:46:19.529Z,93438.67
2019-04-03T16:48:49.919Z,93427.88
2019-04-03T16:51:18.984Z,93422.98
2019-04-03T16:53:47.717Z,93418.69
2019-04-03T16:56:18.599Z,93405.75
2019-04-03T16:58:47.871Z,93403.05
2019-04-03T17:01:16.613Z,93398.59
2019-04-03T17:03:45.663Z,93398.59
2019-04-03T17:06:15.781Z,93393.56
2019-04-03T17:08:45.442Z,93393.69
2019-04-03T17:11:14.538Z,93393.69
2019-04-03T17:13:43.419Z,93394.71
2019-04-03T17:16:14.464Z,93377.63
2019-04-03T17:18:42.954Z,93368.55
2019-04-03T17:21:11.847Z,93367.05
2019-04-03T17:23:43.326Z,93342.89
2019-04-03T17:26:11.539Z,93353.92
2019-04-03T17:28:41.678Z,93353.92
2019-04-03T17:31:10.391Z,93346.42
2019-04-03T17:33:39.334Z,93340.98
2019-04-03T17:36:08.037Z,93347.53
2019-04-03T17:38:36.891Z,93345.96
2019-04-03T17:41:07.047Z,93345.96
2019-04-03T17:43:36.169Z,93355.27
2019-04-03T17:46:04.849Z,93355.27
2019-04-03T17:48:33.710Z,93355.90
2019-04-03T17:51:02.544Z,93383.34
2019-04-03T17:53:32.406Z,93383.34
2019-04-03T17:56:01.021Z,93388.02
2019-04-03T17:58:29.890Z,93403.18
2019-04-03T18:00:58.491Z,93403.18
2019-04-03T18:03:27.278Z,93398.16
2019-04-03T18:05:57.008Z,93387.79
2019-04-03T18:08:26.194Z,93387.06
2019-04-03T18:10:55.039Z,93387.06
2019-04-03T18:13:24.046Z,93407.49
2019-04-03T18:15:52.711Z,93407.49
2019-04-03T18:18:21.682Z,93416.14
2019-04-03T18:20:50.737Z,93416.14
2019-04-03T18:23:21.406Z,93402.52
2019-04-03T18:25:50.057Z,93402.87
2019-04-03T18:28:20.979Z,93379.45
2019-04-03T18:30:49.383Z,93383.61
2019-04-03T18:33:18.058Z,93389.78
2019-04-03T18:35:46.925Z,93411.28
2019-04-03T18:38:15.758Z,93411.28
2019-04-03T18:40:46.393Z,93417.45
2019-04-03T18:43:15.098Z,93423.33
2019-04-03T18:45:44.211Z,93447.78
2019-04-03T18:48:12.802Z,93464.31
2019-04-03T18:50:41.660Z,93468.20
2019-04-03T18:53:10.630Z,93475.32
2019-04-03T18:55:39.293Z,93484.07
2019-04-03T18:58:08.137Z,93481.97
2019-04-03T19:00:36.858Z,93501.04
2019-04-03T19:03:05.972Z,93513.53
2019-04-03T19:05:38.463Z,93514.23
2019-04-03T19:08:13.375Z,93520.05
2019-04-03T19:10:37.930Z,93500.02
2019-04-03T19:13:06.708Z,93484.45
2019-04-03T19:15:35.434Z,93475.45
2019-04-03T19:18:18.044Z,93463.05
2019-04-03T19:20:34.361Z,93451.09
2019-04-03T19:23:04.992Z,93458.98
2019-04-03T19:25:33.589Z,93456.01
2019-04-03T19:28:04.046Z,93451.52
2019-04-03T19:30:33.016Z,93466.92
2019-04-03T19:33:01.644Z,93470.99
2019-04-03T19:35:30.275Z,93472.35
2019-04-03T19:37:59.150Z,93480.22
2019-04-03T19:40:27.757Z,93479.58
2019-04-03T19:42:56.627Z,93463.81
2019-04-03T19:45:25.258Z,93464.83
2019-04-03T19:47:55.500Z,93458.12
2019-04-03T19:50:24.207Z,93453.44
2019-04-03T19:52:52.862Z,93451.16
2019-04-03T19:55:23.613Z,93448.42
2019-04-03T19:57:51.856Z,93446.50
2019-04-03T20:00:20.498Z,93436.28
2019-04-03T20:02:49.115Z,93423.42
2019-04-03T20:05:18.966Z,93425.12
2019-04-03T20:07:48.040Z,93433.33
2019-04-03T20:10:17.021Z,93452.38
2019-04-03T20:12:45.680Z,93442.02
2019-04-03T20:15:14.435Z,93426.76
2019-04-03T20:17:43.072Z,93412.27
2019-04-03T20:20:12.332Z,93432.64
2019-04-03T20:22:42.609Z,93421.73
2019-04-03T20:25:15.412Z,93428.50
2019-04-03T20:27:47.044Z,93431.56
2019-04-03T20:30:14.832Z,93434.98
2019-04-03T20:32:43.468Z,93443.44
2019-04-03T20:35:12.387Z,93427.19
2019-04-03T20:37:43.848Z,93420.67
2019-04-03T20:40:12.090Z,93425.64
2019-04-03T20:42:41.517Z,93431.46
2019-04-03T20:45:10.339Z,93417.58
2019-04-03T20:47:39.217Z,93436.03
2019-04-03T20:50:07.967Z,93435.07
2019-04-03T20:52:36.539Z,93434.80
2019-04-03T20:55:05.668Z,93427.33
2019-04-03T20:57:34.625Z,93417.53
2019-04-03T21:00:03.691Z,93423.33
2019-04-03T21:02:32.538Z,93417.53
2019-04-03T21:05:01.176Z,93425.72
2019-04-03T21:07:29.753Z,93438.70
2019-04-03T21:10:00.523Z,93442.25
2019-04-03T21:12:28.954Z,93439.92
2019-04-03T21:15:07.722Z,93434.09
2019-04-03T21:17:28.175Z,93426.52
2019-04-03T21:19:57.003Z,93407.91
2019-04-03T21:22:25.897Z,93389.61
2019-04-03T21:24:56.472Z,93392.10
2019-04-03T21:27:25.452Z,93415.08
2019-04-03T21:29:54.058Z,93428.60
2019-04-03T21:32:22.990Z,93417.63
2019-04-03T21:34:51.586Z,93414.70
2019-04-03T21:37:20.206Z,93438.55
2019-04-03T21:39:49.079Z,93472.62
2019-04-03T21:42:17.958Z,93487.08
2019-04-03T21:44:46.604Z,93486.63
2019-04-03T21:47:15.494Z,93471.37
2019-04-03T21:49:47.295Z,93458.25
2019-04-03T21:52:14.585Z,93431.66
2019-04-03T21:54:43.258Z,93411.12
2019-04-03T21:57:11.940Z,93408.53
2019-04-03T21:59:41.699Z,93397.70
2019-04-03T22:02:11.378Z,93407.35
2019-04-03T22:04:40.276Z,93434.54
2019-04-03T22:07:09.241Z,93446.20
2019-04-03T22:09:38.467Z,93443.52
2019-04-03T22:12:07.827Z,93441.41
2019-04-03T22:14:36.463Z,93438.06
2019-04-03T22:17:05.153Z,93420.17
2019-04-03T22:19:33.816Z,93430.95
2019-04-03T22:22:02.959Z,93443.61
2019-04-03T22:24:32.485Z,93446.36
2019-04-03T22:27:01.380Z,93458.70
2019-04-03T22:29:29.964Z,93458.20
2019-04-03T22:31:58.820Z,93446.99
2019-04-03T22:34:29.843Z,93453.13
2019-04-03T22:36:58.517Z,93470.06
2019-04-03T22:39:27.192Z,93452.42
2019-04-03T22:41:55.821Z,93426.77
2019-04-03T22:44:25.505Z,93410.84
2019-04-03T22:46:54.689Z,93416.86
2019-04-03T22:49:24.468Z,93411.41
2019-04-03T22:51:53.291Z,93368.14
2019-04-03T22:54:21.937Z,93386.73
2019-04-03T22:56:50.529Z,93395.10
2019-04-03T22:59:19.378Z,93404.41
2019-04-03T23:01:48.045Z,93422.33
2019-04-03T23:04:17.145Z,93428.16
2019-04-03T23:06:46.194Z,93415.11
2019-04-03T23:09:14.791Z,93393.39
2019-04-03T23:11:43.697Z,93411.80
2019-04-03T23:14:12.337Z,93434.02
2019-04-03T23:16:42.716Z,93439.21
2019-04-03T23:19:12.092Z,93441.86
2019-04-03T23:21:40.715Z,93439.97
2019-04-03T23:24:09.302Z,93430.16
2019-04-03T23:26:38.048Z,93434.51
2019-04-03T23:29:06.675Z,93426.06
2019-04-03T23:31:35.536Z,93430.23
2019-04-03T23:34:04.254Z,93415.31
2019-04-03T23:36:33.392Z,93407.28
2019-04-03T23:39:02.005Z,93401.16
2019-04-03T23:41:30.645Z,93397.41
2019-04-03T23:43:59.503Z,93392.75
2019-04-03T23:46:28.181Z,93389.80
2019-04-03T23:48:57.057Z,93390.17
2019-04-03T23:51:27.936Z,93388.56
2019-04-03T23:53:56.144Z,93383.92
2019-04-03T23:56:25.020Z,93373.95
2019-04-03T23:58:54.163Z,93366.67
